Time;durP1;ratioP1;P1;durP2;ratioP2;P2;SDS_P1;SDS_P2;PMS_P1;PMS_P2;Temp;Humidity;BMP_temperature;BMP_pressure;BME280_temperature;BME280_humidity;BME280_pressure;Samples;Min_cycle;Max_cycle;Signal;HPM_P1;HPM_P2
2023/05/08 00:01:34;;;;;;;13.23;2.95;;;;;;;14.22;81.50;99930.06;10458080;28;20094;-68
2023/05/08 00:06:35;;;;;;;19.05;3.65;;;;;;;14.59;80.87;99963.47;10458612;28;20139;-68
2023/05/08 00:11:36;;;;;;;17.85;3.33;;;;;;;14.58;80.23;99973.34;10458581;28;20520;-68
2023/05/08 00:16:36;;;;;;;11.50;2.90;;;;;;;14.58;80.27;99991.25;10457034;28;20051;-68
2023/05/08 00:21:37;;;;;;;12.88;3.38;;;;;;;14.52;80.68;99982.19;10485685;28;20040;-68
2023/05/08 00:26:38;;;;;;;11.15;3.05;;;;;;;14.04;80.77;99895.94;10497053;28;20056;-68
2023/05/08 00:31:39;;;;;;;13.05;3.65;;;;;;;14.49;80.68;99976.38;10480314;28;20037;-68
2023/05/08 00:36:40;;;;;;;20.05;3.28;;;;;;;14.39;80.47;99988.28;10477000;28;20056;-68
2023/05/08 00:41:41;;;;;;;12.18;2.92;;;;;;;14.35;80.77;99981.69;10497747;28;20085;-68
2023/05/08 00:46:43;;;;;;;17.20;3.35;;;;;;;14.12;80.75;99966.00;10496719;28;20073;-68
2023/05/08 00:51:45;;;;;;;12.15;3.33;;;;;;;13.83;81.41;99907.56;10497165;28;20037;-68
2023/05/08 00:56:49;;;;;;;12.77;3.00;;;;;;;14.14;81.27;99963.13;10496923;28;20060;-68
2023/05/08 01:01:51;;;;;;;21.88;4.55;;;;;;;14.27;80.50;99973.03;10496647;28;20071;-68
2023/05/08 01:06:52;;;;;;;10.20;3.13;;;;;;;14.14;80.21;99942.56;10496725;28;20032;-68
2023/05/08 01:12:05;;;;;;;16.88;3.13;;;;;;;14.11;81.22;99964.34;10496957;28;20051;-68
2023/05/08 01:17:21;;;;;;;14.73;3.40;;;;;;;13.95;81.59;99954.03;10496714;28;20067;-68
2023/05/08 01:22:51;;;;;;;21.05;4.70;;;;;;;13.79;80.94;99944.53;10495973;28;20041;-68
2023/05/08 01:28:14;;;;;;;14.95;3.97;;;;;;;13.79;80.70;99951.69;10492072;28;20049;-68
2023/05/08 01:33:46;;;;;;;17.95;3.95;;;;;;;13.85;80.29;99950.88;10496340;28;20123;-68
2023/05/08 01:39:11;;;;;;;23.50;4.10;;;;;;;13.77;80.36;99945.75;10495688;28;20052;-68
2023/05/08 01:44:17;;;;;;;25.75;3.88;;;;;;;13.89;79.28;99949.47;10467284;28;20587;-68
2023/05/08 01:49:33;;;;;;;18.48;3.65;;;;;;;13.99;78.42;99954.44;10454676;28;20127;-68
2023/05/08 01:54:41;;;;;;;18.38;3.53;;;;;;;14.03;77.94;99953.88;10494606;28;20419;-68
2023/05/08 01:59:45;;;;;;;18.05;3.75;;;;;;;14.02;77.54;99951.38;10494919;28;20056;-68
2023/05/08 02:04:48;;;;;;;18.83;3.50;;;;;;;13.89;77.79;99952.16;10495689;28;20071;-68
2023/05/08 02:09:50;;;;;;;14.48;3.38;;;;;;;13.93;78.21;99964.06;10494897;28;20040;-68
2023/05/08 02:14:52;;;;;;;13.07;3.78;;;;;;;13.91;78.38;99960.81;10495355;28;20423;-68
2023/05/08 02:19:55;;;;;;;18.52;3.72;;;;;;;14.04;78.31;99971.53;10495499;28;20044;-68
2023/05/08 02:24:57;;;;;;;14.00;3.50;;;;;;;14.08;78.08;99961.25;10494462;28;20043;-68
2023/05/08 02:29:59;;;;;;;12.40;3.53;;;;;;;13.88;78.67;99932.66;10494292;28;20072;-68
2023/05/08 02:35:01;;;;;;;32.05;4.50;;;;;;;14.06;78.75;99945.44;10495610;28;20129;-68
2023/05/08 02:40:05;;;;;;;19.63;3.45;;;;;;;14.10;78.66;99941.34;10494485;28;20033;-68
2023/05/08 02:45:07;;;;;;;14.73;3.67;;;;;;;14.31;78.61;99964.41;10495484;28;20098;-68
2023/05/08 02:50:17;;;;;;;11.30;2.88;;;;;;;14.18;78.27;99910.97;10498567;28;20495;-68
2023/05/08 02:55:21;;;;;;;11.60;2.85;;;;;;;14.85;78.21;99992.09;10501948;28;20155;-68
2023/05/08 03:00:28;;;;;;;14.37;2.90;;;;;;;15.04;77.14;99979.75;10501436;28;20135;-68
2023/05/08 03:05:31;;;;;;;16.25;3.53;;;;;;;15.56;76.06;99955.81;10502013;28;20781;-68
2023/05/08 03:10:35;;;;;;;12.75;2.50;;;;;;;15.57;75.84;99955.59;10501363;28;20119;-68
2023/05/08 03:15:43;;;;;;;15.43;2.55;;;;;;;15.92;75.08;99977.56;10501061;28;20036;-68
2023/05/08 03:20:49;;;;;;;9.07;2.25;;;;;;;16.01;73.71;99931.78;10500732;28;20511;-68
2023/05/08 03:25:51;;;;;;;8.52;2.00;;;;;;;16.31;74.63;99994.50;10501122;28;20462;-68
2023/05/08 03:30:53;;;;;;;12.95;2.88;;;;;;;16.18;74.92;100013.31;10498089;28;20040;-68
2023/05/08 03:35:55;;;;;;;7.72;2.30;;;;;;;16.00;75.51;100005.16;10500701;28;20052;-68
2023/05/08 03:40:58;;;;;;;12.98;2.67;;;;;;;15.92;76.51;100020.44;10499495;28;20036;-68
2023/05/08 03:45:59;;;;;;;14.25;2.75;;;;;;;15.92;76.61;100028.47;10500452;28;20583;-68
2023/05/08 03:51:02;;;;;;;19.00;2.90;;;;;;;15.42;77.46;99981.78;10500504;28;20039;-68
2023/05/08 03:56:03;;;;;;;8.13;2.20;;;;;;;15.69;78.00;100057.56;10498605;28;20500;-68
2023/05/08 04:01:12;;;;;;;11.32;2.38;;;;;;;15.69;80.17;100055.69;10500040;28;20507;-68
2023/05/08 04:06:25;;;;;;;11.75;2.45;;;;;;;15.41;80.14;100022.97;10499500;28;20115;-68
2023/05/08 04:11:35;;;;;;;10.38;2.10;;;;;;;15.73;81.04;100058.78;10499529;28;20404;-68
2023/05/08 04:16:47;;;;;;;6.35;2.13;;;;;;;15.23;81.66;99972.75;10499275;28;20048;-68
2023/05/08 04:21:50;;;;;;;6.65;1.58;;;;;;;15.75;80.17;100072.78;10498840;28;20037;-69
2023/05/08 04:26:51;;;;;;;6.53;1.80;;;;;;;15.85;79.61;100062.47;10474579;28;20598;-69
2023/05/08 04:31:52;;;;;;;15.43;2.80;;;;;;;15.93;79.46;100048.84;10457655;28;20049;-69
2023/05/08 04:36:53;;;;;;;6.88;1.75;;;;;;;15.88;79.40;100050.50;10461192;28;20090;-69
2023/05/08 04:42:01;;;;;;;10.65;1.75;;;;;;;15.91;79.69;100064.34;10468970;28;20068;-68
2023/05/08 04:47:02;;;;;;;8.63;1.95;;;;;;;15.62;79.38;100004.00;10471577;28;20147;-68
2023/05/08 04:52:03;;;;;;;7.93;1.90;;;;;;;15.91;79.65;100067.00;10465638;28;20132;-68
2023/05/08 04:57:03;;;;;;;18.92;2.97;;;;;;;15.87;79.99;100071.13;10471554;28;20065;-68
2023/05/08 05:02:07;;;;;;;6.88;2.08;;;;;;;15.78;80.10;100066.22;10456691;28;20170;-69
2023/05/08 05:07:07;;;;;;;5.45;1.70;;;;;;;15.45;80.13;100017.00;10496752;28;20037;-69
2023/05/08 05:12:09;;;;;;;6.35;1.83;;;;;;;15.73;80.24;100077.53;10496008;28;20123;-69
2023/05/08 05:17:09;;;;;;;7.55;2.30;;;;;;;15.63;80.13;100066.41;10490950;28;20135;-69
2023/05/08 05:22:10;;;;;;;9.05;1.90;;;;;;;15.56;80.09;100062.91;10484793;28;20049;-70
2023/05/08 05:27:11;;;;;;;8.32;1.98;;;;;;;15.63;80.35;100066.41;10469581;28;20050;-69
2023/05/08 05:32:12;;;;;;;6.60;1.75;;;;;;;15.51;80.71;100036.75;10489994;28;20393;-70
2023/05/08 05:37:14;;;;;;;5.03;2.10;;;;;;;15.34;80.51;99985.50;10494462;28;20411;-70
2023/05/08 05:42:15;;;;;;;8.00;2.15;;;;;;;15.93;80.00;100070.28;10472614;28;20131;-70
2023/05/08 05:47:16;;;;;;;7.35;2.10;;;;;;;15.80;79.85;100067.66;10471036;28;20182;-70
2023/05/08 05:52:17;;;;;;;6.53;1.95;;;;;;;15.95;79.92;100076.25;10478058;28;20037;-70
2023/05/08 05:57:18;;;;;;;5.40;2.33;;;;;;;15.87;79.70;100083.69;10475698;28;20227;-69
2023/05/08 06:02:19;;;;;;;12.65;2.45;;;;;;;15.70;80.30;100067.22;10474933;28;20138;-69
2023/05/08 06:07:20;;;;;;;12.27;2.28;;;;;;;15.77;79.97;100068.06;10471230;28;20044;-70
2023/05/08 06:12:21;;;;;;;11.55;2.55;;;;;;;15.80;80.10;100064.97;10466303;28;20041;-70
2023/05/08 06:17:22;;;;;;;6.75;2.35;;;;;;;15.90;79.52;100077.91;10473753;28;20037;-69
2023/05/08 06:22:24;;;;;;;7.88;2.40;;;;;;;15.85;79.69;100085.75;10470561;28;20043;-71
2023/05/08 06:27:25;;;;;;;5.95;2.60;;;;;;;15.79;80.09;100089.25;10482511;28;20123;-69
2023/05/08 06:32:26;;;;;;;10.68;3.33;;;;;;;15.81;79.86;100090.72;10482469;28;20407;-69
2023/05/08 06:37:26;;;;;;;5.80;2.97;;;;;;;16.01;79.89;100095.22;10476882;28;20123;-69
2023/05/08 06:42:27;;;;;;;8.52;3.20;;;;;;;16.17;79.15;100092.91;10480747;28;20044;-69
2023/05/08 06:47:28;;;;;;;7.75;3.22;;;;;;;16.03;78.28;100031.50;10478209;28;20041;-69
2023/05/08 06:52:29;;;;;;;5.28;3.65;;;;;;;16.60;77.79;100088.81;10481106;28;20041;-69
2023/05/08 06:57:30;;;;;;;7.50;3.88;;;;;;;16.75;76.86;100093.91;10476279;28;20064;-68
2023/05/08 07:02:30;;;;;;;10.70;4.55;;;;;;;16.91;76.18;100095.31;10476487;28;20071;-68
2023/05/08 07:07:31;;;;;;;9.75;3.95;;;;;;;16.98;75.47;100067.38;10473986;28;20033;-68
2023/05/08 07:12:32;;;;;;;15.98;4.80;;;;;;;17.33;74.83;100099.97;10479149;28;20109;-71
2023/05/08 07:17:35;;;;;;;6.30;4.25;;;;;;;17.26;73.85;100077.72;10498289;28;20420;-67
2023/05/08 07:22:36;;;;;;;9.70;4.67;;;;;;;17.69;73.15;100105.66;10501077;28;20036;-67
2023/05/08 07:27:37;;;;;;;15.70;5.15;;;;;;;17.65;72.58;100101.75;10500685;28;20036;-67
2023/05/08 07:32:38;;;;;;;6.57;4.55;;;;;;;17.63;72.46;100107.38;10469544;28;20047;-68
2023/05/08 07:37:38;;;;;;;8.13;5.30;;;;;;;17.00;72.74;100024.25;10476677;28;20052;-67
2023/05/08 07:42:42;;;;;;;10.20;5.85;;;;;;;17.49;72.37;100105.81;10500781;28;20107;-68
2023/05/08 07:47:52;;;;;;;11.35;6.18;;;;;;;17.44;72.11;100113.72;10498912;28;20079;-68
2023/05/08 07:52:53;;;;;;;15.73;6.18;;;;;;;17.28;72.19;100115.88;10493942;28;20041;-68
2023/05/08 07:57:54;;;;;;;7.72;6.53;;;;;;;17.10;72.51;100099.72;10478995;28;20061;-67
2023/05/08 08:02:54;;;;;;;9.00;6.50;;;;;;;17.24;72.12;100120.06;10458079;28;20037;-67
2023/05/08 08:07:55;;;;;;;7.50;5.45;;;;;;;17.22;71.96;100126.69;10458207;28;20044;-67
2023/05/08 08:12:56;;;;;;;12.73;5.15;;;;;;;17.31;71.91;100120.81;10458512;28;20040;-67
2023/05/08 08:17:57;;;;;;;13.60;8.75;;;;;;;17.63;71.52;100146.84;10476458;28;20490;-67
2023/05/08 08:22:58;;;;;;;5.72;3.58;;;;;;;17.61;71.21;100124.75;10503343;28;20043;-67
2023/05/08 08:27:59;;;;;;;3.85;2.38;;;;;;;17.71;70.77;100151.91;10457984;28;20045;-67
2023/05/08 08:33:01;;;;;;;3.50;2.80;;;;;;;17.45;71.29;100137.66;10457432;28;20493;-67
2023/05/08 08:38:02;;;;;;;4.93;2.38;;;;;;;16.63;71.30;100010.59;10465498;28;20139;-67
2023/05/08 08:43:04;;;;;;;6.43;2.60;;;;;;;17.45;71.26;100150.28;10462720;28;20140;-67
2023/05/08 08:48:10;;;;;;;5.78;3.20;;;;;;;17.34;71.20;100138.38;10494694;28;20502;-67
2023/05/08 08:53:24;;;;;;;11.07;2.83;;;;;;;17.21;70.35;100071.34;10493283;28;20531;-67
2023/05/08 08:58:51;;;;;;;;;;;;;;;18.01;69.81;100142.19;10496021;28;20091;-67
2023/05/08 09:03:52;;;;;;;5.85;2.67;;;;;;;17.50;69.40;100064.50;10492796;28;19958;-67
2023/05/08 09:08:57;;;;;;;14.52;2.80;;;;;;;18.01;69.05;100141.38;10496935;28;20066;-67
2023/05/08 09:13:58;;;;;;;17.08;3.00;;;;;;;18.34;68.33;100132.97;10496448;28;20041;-67
2023/05/08 09:18:59;;;;;;;5.63;2.72;;;;;;;18.39;67.73;100132.25;10483704;28;20049;-67
2023/05/08 09:24:02;;;;;;;10.60;3.78;;;;;;;18.05;68.29;100137.19;10454774;28;20128;-67
2023/05/08 09:29:13;;;;;;;10.40;3.88;;;;;;;17.92;68.73;100139.97;10477524;28;20495;-67
2023/05/08 09:34:27;;;;;;;8.20;4.03;;;;;;;17.78;68.97;100128.56;10477630;28;20102;-67
2023/05/08 09:39:28;;;;;;;9.02;4.05;;;;;;;17.76;68.94;100142.16;10459329;28;20065;-67
2023/05/08 09:44:46;;;;;;;7.47;4.20;;;;;;;18.10;67.92;100147.25;10464764;28;20041;-68
2023/05/08 09:50:05;;;;;;;6.10;3.50;;;;;;;17.46;67.93;100063.31;10454582;28;20087;-67
2023/05/08 09:55:10;;;;;;;13.57;3.75;;;;;;;17.53;68.30;100117.78;10452428;28;20053;-67
2023/05/08 10:00:12;;;;;;;8.43;3.38;;;;;;;17.18;68.79;100082.53;10459914;28;20511;-68
2023/05/08 10:05:31;;;;;;;6.75;3.80;;;;;;;17.45;69.92;100142.22;10463147;28;20071;-68
2023/05/08 10:10:32;;;;;;;6.50;3.40;;;;;;;17.31;69.75;100150.34;10452781;28;20546;-67
2023/05/08 10:15:36;;;;;;;8.05;3.75;;;;;;;16.87;69.66;100066.22;10453524;28;20083;-68
2023/05/08 10:20:43;;;;;;;10.25;4.00;;;;;;;17.53;69.84;100144.66;10454525;28;20091;-70
2023/05/08 10:25:50;;;;;;;10.52;4.00;;;;;;;17.89;68.72;100129.69;10453865;28;20037;-71
2023/05/08 10:30:55;;;;;;;14.55;3.65;;;;;;;18.31;67.01;100122.66;10453532;28;20086;-70
2023/05/08 10:35:57;;;;;;;11.88;3.70;;;;;;;18.37;66.91;100126.31;10453697;28;20516;-71
2023/05/08 10:41:01;;;;;;;5.22;2.85;;;;;;;18.32;65.79;100128.84;10453139;28;20036;-70
2023/05/08 10:46:27;;;;;;;9.85;3.42;;;;;;;18.46;65.57;100151.84;10454175;28;20079;-70
2023/05/08 10:52:15;;;;;;;6.68;3.30;;;;;;;18.55;65.14;100155.88;10441939;28;20056;-71
2023/05/08 10:57:16;;;;;;;8.18;3.30;;;;;;;18.48;65.71;100152.44;10452631;28;20061;-70
2023/05/08 11:02:27;;;;;;;9.32;3.00;;;;;;;18.48;65.74;100150.56;10455972;28;20033;-71
2023/05/08 11:07:57;;;;;;;10.63;3.17;;;;;;;18.59;65.51;100159.75;10452587;28;20126;-71
2023/05/08 11:12:59;;;;;;;8.15;2.58;;;;;;;18.54;65.08;100178.44;10469991;28;20098;-71
2023/05/08 11:18:03;;;;;;;14.13;3.33;;;;;;;18.44;64.41;100146.69;10460199;28;20074;-71
2023/05/08 11:23:26;;;;;;;8.52;3.20;;;;;;;18.55;64.47;100177.41;10460125;28;20721;-71
2023/05/08 11:28:30;;;;;;;11.88;3.30;;;;;;;18.29;65.27;100158.88;10459949;28;20136;-71
2023/05/08 11:33:32;;;;;;;5.75;3.05;;;;;;;18.23;65.46;100179.41;10458968;28;20040;-71
2023/05/08 11:38:36;;;;;;;6.93;3.08;;;;;;;17.83;65.72;100166.34;10458981;28;20041;-71
2023/05/08 11:43:37;;;;;;;5.95;2.70;;;;;;;17.68;66.11;100180.06;10459220;28;20408;-70
2023/05/08 11:48:39;;;;;;;6.72;2.97;;;;;;;17.43;66.45;100184.56;10458403;28;20037;-71
2023/05/08 11:53:39;;;;;;;11.43;3.80;;;;;;;17.21;67.19;100165.31;10459975;28;20048;-71
2023/05/08 11:58:40;;;;;;;7.25;3.40;;;;;;;17.15;67.49;100185.78;10488356;28;20087;-71
2023/05/08 12:03:41;;;;;;;7.15;2.95;;;;;;;16.91;68.02;100191.91;10500320;28;20048;-71
2023/05/08 12:08:42;;;;;;;8.70;3.53;;;;;;;16.68;68.79;100187.81;10497870;28;20059;-71
2023/05/08 12:13:50;;;;;;;9.35;3.35;;;;;;;16.50;69.61;100191.16;10468156;28;20135;-71
2023/05/08 12:18:52;;;;;;;10.05;3.78;;;;;;;16.40;69.44;100205.00;10457807;28;20044;-71
2023/05/08 12:23:55;;;;;;;7.75;3.60;;;;;;;16.18;70.19;100200.91;10458625;28;20450;-71
2023/05/08 12:28:55;;;;;;;11.25;3.83;;;;;;;16.08;70.51;100190.63;10467126;28;20084;-71
2023/05/08 12:33:57;;;;;;;7.57;4.20;;;;;;;15.86;70.50;100155.19;10456804;28;20060;-71
2023/05/08 12:39:15;;;;;;;9.50;3.20;;;;;;;16.18;71.46;100201.75;10469641;28;20049;-71
2023/05/08 12:44:22;;;;;;;6.22;3.60;;;;;;;16.27;70.98;100199.66;10473302;28;20467;-72
2023/05/08 12:49:30;;;;;;;6.20;2.70;;;;;;;16.24;70.05;100186.66;10457032;28;20044;-72
2023/05/08 12:54:32;;;;;;;6.60;2.83;;;;;;;15.95;70.31;100153.13;10456465;28;20116;-71
2023/05/08 12:59:33;;;;;;;7.47;3.17;;;;;;;16.23;70.56;100209.16;10455578;28;20143;-71
2023/05/08 13:04:37;;;;;;;9.05;2.97;;;;;;;16.08;71.43;100209.38;10452570;28;20033;-71
2023/05/08 13:09:39;;;;;;;4.72;3.05;;;;;;;15.98;71.44;100204.44;10454958;28;20041;-72
2023/05/08 13:14:40;;;;;;;10.02;3.88;;;;;;;15.86;71.88;100208.78;10455180;28;20041;-70
2023/05/08 13:19:40;;;;;;;19.23;4.75;;;;;;;15.49;72.74;100202.09;10454469;28;20056;-70
2023/05/08 13:24:41;;;;;;;83.45;48.22;;;;;;;15.15;73.23;100189.69;10455360;28;20051;-71
2023/05/08 13:29:42;;;;;;;21.15;8.45;;;;;;;15.19;73.59;100215.00;10454630;28;20065;-71
2023/05/08 13:34:42;;;;;;;12.48;5.05;;;;;;;15.07;73.88;100234.31;10454514;28;20473;-70
2023/05/08 13:39:43;;;;;;;14.52;4.70;;;;;;;14.57;74.52;100187.41;10454599;28;20041;-71
2023/05/08 13:44:44;;;;;;;12.52;3.92;;;;;;;14.96;75.00;100272.34;10453486;28;20393;-71
2023/05/08 13:49:46;;;;;;;14.10;4.30;;;;;;;14.95;74.86;100269.84;10453609;28;20041;-71
2023/05/08 13:54:46;;;;;;;13.77;3.75;;;;;;;14.09;75.12;100131.16;10457828;28;20122;-71
2023/05/08 13:59:48;;;;;;;12.88;3.78;;;;;;;14.48;75.41;100204.56;10461112;28;20073;-70
2023/05/08 14:04:48;;;;;;;11.27;2.97;;;;;;;14.76;75.72;100261.53;10452795;28;20067;-71
2023/05/08 14:09:51;;;;;;;12.48;2.97;;;;;;;14.83;75.83;100289.13;10463333;28;20550;-72
2023/05/08 14:14:53;;;;;;;7.77;2.77;;;;;;;14.74;75.98;100298.34;10452893;28;20126;-72
2023/05/08 14:19:54;;;;;;;9.85;2.90;;;;;;;14.67;76.81;100307.34;10454854;28;20559;-71
2023/05/08 14:24:55;;;;;;;24.95;3.28;;;;;;;14.57;77.01;100300.50;10488253;28;20064;-71
2023/05/08 14:29:56;;;;;;;13.10;7.78;;;;;;;14.18;77.53;100258.25;10472840;28;20041;-71
2023/05/08 14:34:57;;;;;;;8.32;4.40;;;;;;;14.32;78.10;100288.56;10449801;28;20045;-70
2023/05/08 14:39:58;;;;;;;11.32;3.20;;;;;;;14.29;78.29;100289.75;10463555;28;20496;-71
2023/05/08 14:44:59;;;;;;;8.00;3.35;;;;;;;14.18;78.83;100306.34;10463432;28;20140;-71
2023/05/08 14:50:00;;;;;;;12.77;3.75;;;;;;;14.06;79.55;100319.38;10470224;28;20091;-71
2023/05/08 14:55:00;;;;;;;11.07;3.13;;;;;;;13.83;80.62;100311.56;10485576;28;20106;-70
2023/05/08 15:00:02;;;;;;;7.60;2.70;;;;;;;13.64;81.14;100310.34;10475236;28;20055;-70
2023/05/08 15:05:03;;;;;;;7.22;3.10;;;;;;;13.28;81.38;100262.28;10487669;28;20102;-72
2023/05/08 15:10:05;;;;;;;18.80;2.90;;;;;;;13.70;81.89;100346.94;10465952;28;20041;-71
2023/05/08 15:15:06;;;;;;;9.07;3.33;;;;;;;13.12;82.02;100268.63;10466245;28;20039;-72
2023/05/08 15:20:08;;;;;;;12.05;3.08;;;;;;;13.20;83.17;100292.53;10498425;28;20048;-73
2023/05/08 15:25:09;;;;;;;16.08;3.10;;;;;;;13.56;83.12;100360.34;10490940;28;20045;-71
2023/05/08 15:30:10;;;;;;;16.83;3.40;;;;;;;13.54;83.36;100373.84;10480823;28;20049;-71
2023/05/08 15:35:11;;;;;;;5.35;2.40;;;;;;;13.27;84.33;100355.84;10479229;28;20041;-67
2023/05/08 15:40:12;;;;;;;7.30;3.17;;;;;;;13.30;85.50;100374.97;10476127;28;20041;-70
2023/05/08 15:45:13;;;;;;;9.00;2.78;;;;;;;12.95;86.42;100348.03;10479435;28;20450;-71
2023/05/08 15:50:14;;;;;;;6.18;3.33;;;;;;;12.77;88.04;100334.19;10475293;28;20053;-69
2023/05/08 15:55:16;;;;;;;9.18;3.50;;;;;;;12.99;89.80;100381.28;10481997;28;20625;-69
2023/05/08 16:00:17;;;;;;;10.88;3.05;;;;;;;12.86;91.45;100390.91;10473529;28;20043;-69
2023/05/08 16:05:18;;;;;;;6.68;3.50;;;;;;;12.76;91.61;100378.69;10462188;28;20044;-70
2023/05/08 16:10:19;;;;;;;9.10;3.20;;;;;;;12.66;92.37;100391.44;10479820;28;20044;-71
2023/05/08 16:15:20;;;;;;;7.82;2.67;;;;;;;12.58;93.52;100383.53;10475224;28;20493;-70
2023/05/08 16:20:21;;;;;;;6.55;2.72;;;;;;;12.48;94.92;100396.28;10473785;28;20044;-70
2023/05/08 16:25:22;;;;;;;8.18;3.30;;;;;;;12.34;95.07;100377.38;10481423;28;20041;-69
2023/05/08 16:30:23;;;;;;;7.00;4.03;;;;;;;12.54;95.37;100403.56;10476769;28;20420;-71
2023/05/08 16:35:23;;;;;;;4.65;3.05;;;;;;;12.61;95.29;100409.00;10477008;28;20040;-70
2023/05/08 16:40:24;;;;;;;7.95;3.50;;;;;;;12.51;95.30;100410.06;10473627;28;20037;-70
2023/05/08 16:45:25;;;;;;;9.48;6.20;;;;;;;12.44;95.86;100413.59;10482780;28;20167;-71
2023/05/08 16:50:26;;;;;;;8.98;5.07;;;;;;;12.49;96.30;100427.22;10476113;28;20518;-69
2023/05/08 16:55:27;;;;;;;7.82;5.43;;;;;;;12.64;96.50;100448.59;10475790;28;20052;-68
2023/05/08 17:00:28;;;;;;;8.95;6.15;;;;;;;12.27;96.39;100381.78;10473888;28;20033;-68
2023/05/08 17:05:29;;;;;;;9.60;5.88;;;;;;;12.67;95.99;100446.41;10473492;28;20056;-72
2023/05/08 17:10:30;;;;;;;15.15;6.47;;;;;;;12.56;96.47;100439.69;10485687;28;20132;-72
2023/05/08 17:15:31;;;;;;;9.90;5.60;;;;;;;12.50;96.35;100426.22;10470454;28;20048;-72
2023/05/08 17:20:39;;;;;;;7.63;5.93;;;;;;;12.65;96.72;100443.06;10494579;28;20051;-72
2023/05/08 17:25:40;;;;;;;8.38;5.53;;;;;;;12.66;96.31;100462.59;10470089;28;20049;-71
2023/05/08 17:30:40;;;;;;;7.68;4.78;;;;;;;12.29;96.47;100425.06;10460501;28;20037;-71
2023/05/08 17:35:41;;;;;;;7.85;4.60;;;;;;;12.60;96.54;100469.47;10480501;28;20404;-72
2023/05/08 17:40:42;;;;;;;6.50;4.40;;;;;;;12.62;96.47;100469.25;10470652;28;20055;-73
2023/05/08 17:45:43;;;;;;;8.93;3.38;;;;;;;12.57;96.43;100469.81;10475002;28;20547;-72
2023/05/08 17:50:45;;;;;;;8.02;4.85;;;;;;;12.44;95.75;100472.22;10463094;28;20037;-72
2023/05/08 17:55:47;;;;;;;7.03;3.50;;;;;;;12.45;95.78;100477.38;10463417;28;20052;-72
2023/05/08 18:00:48;;;;;;;7.10;3.70;;;;;;;12.12;95.98;100431.50;10457961;28;20082;-72
2023/05/08 18:05:49;;;;;;;4.30;2.80;;;;;;;12.59;95.37;100501.59;10473379;28;20044;-72
2023/05/08 18:10:50;;;;;;;5.32;2.90;;;;;;;11.67;95.11;100366.50;10472474;28;20045;-73
2023/05/08 18:15:50;;;;;;;6.90;3.50;;;;;;;12.63;95.47;100522.41;10465267;28;20045;-72
2023/05/08 18:20:52;;;;;;;7.22;3.33;;;;;;;12.46;94.99;100505.69;10475293;28;20044;-71
2023/05/08 18:25:53;;;;;;;4.53;3.00;;;;;;;11.99;94.38;100463.16;10482849;28;20182;-70
2023/05/08 18:30:54;;;;;;;5.80;2.70;;;;;;;12.42;94.23;100530.19;10470876;28;20124;-71
2023/05/08 18:35:55;;;;;;;3.63;2.70;;;;;;;12.31;93.93;100526.91;10487379;28;20054;-70
2023/05/08 18:40:55;;;;;;;7.82;3.00;;;;;;;12.40;93.87;100537.53;10482385;28;20036;-70
2023/05/08 18:45:57;;;;;;;5.68;2.70;;;;;;;12.20;93.36;100498.00;10480167;28;20048;-70
2023/05/08 18:50:58;;;;;;;5.93;2.92;;;;;;;12.22;93.02;100506.66;10484518;28;20033;-70
2023/05/08 18:56:02;;;;;;;5.43;2.83;;;;;;;12.48;92.99;100543.66;10481980;28;20063;-70
2023/05/08 19:01:04;;;;;;;5.55;2.72;;;;;;;12.47;92.53;100535.81;10480870;28;20059;-72
2023/05/08 19:06:05;;;;;;;4.65;2.72;;;;;;;12.45;92.23;100528.00;10492519;28;20070;-69
2023/05/08 19:11:06;;;;;;;6.43;3.10;;;;;;;12.42;92.12;100522.22;10501590;28;20492;-70
2023/05/08 19:16:07;;;;;;;5.57;2.22;;;;;;;12.05;91.80;100446.50;10499726;28;20051;-70
2023/05/08 19:21:07;;;;;;;6.90;2.88;;;;;;;11.85;91.75;100422.97;10501702;28;20048;-70
2023/05/08 19:26:08;;;;;;;4.82;2.75;;;;;;;12.44;91.73;100515.69;10500765;28;20105;-69
2023/05/08 19:31:09;;;;;;;6.45;2.65;;;;;;;12.20;91.71;100494.50;10499830;28;20078;-70
2023/05/08 19:36:10;;;;;;;6.55;2.88;;;;;;;12.37;91.51;100513.91;10500609;28;20059;-70
2023/05/08 19:41:11;;;;;;;4.13;2.50;;;;;;;12.30;91.23;100521.78;10475863;28;20053;-70
2023/05/08 19:46:11;;;;;;;4.45;2.70;;;;;;;12.13;91.27;100486.41;10458643;28;20033;-70
2023/05/08 19:51:12;;;;;;;4.78;2.97;;;;;;;12.28;91.44;100503.28;10457226;28;20416;-70
2023/05/08 19:56:13;;;;;;;3.75;2.50;;;;;;;12.39;91.04;100520.72;10458813;28;20059;-70
2023/05/08 20:01:14;;;;;;;4.93;2.75;;;;;;;12.29;91.22;100510.28;10458093;28;20045;-69
2023/05/08 20:06:14;;;;;;;4.90;2.50;;;;;;;12.27;91.12;100520.28;10458398;28;20051;-70
2023/05/08 20:11:15;;;;;;;6.68;3.30;;;;;;;12.19;91.06;100501.69;10472265;28;20039;-69
2023/05/08 20:16:16;;;;;;;17.48;11.55;;;;;;;12.22;90.98;100511.97;10475511;28;20063;-70
2023/05/08 20:21:17;;;;;;;8.23;3.85;;;;;;;12.23;91.46;100508.31;10457028;28;20055;-70
2023/05/08 20:26:17;;;;;;;8.65;3.30;;;;;;;12.04;91.64;100482.13;10478400;28;20046;-70
2023/05/08 20:31:18;;;;;;;6.88;4.07;;;;;;;12.13;91.22;100510.38;10499284;28;20048;-70
2023/05/08 20:36:19;;;;;;;4.72;3.25;;;;;;;11.87;91.02;100490.16;10496929;28;20048;-70
2023/05/08 20:41:20;;;;;;;7.82;3.33;;;;;;;11.85;91.59;100517.97;10465209;28;20079;-70
2023/05/08 20:46:20;;;;;;;5.72;2.88;;;;;;;11.77;92.17;100505.50;10475148;28;20048;-70
2023/05/08 20:51:21;;;;;;;6.40;3.17;;;;;;;11.61;91.81;100502.91;10498304;28;20126;-69
2023/05/08 20:56:22;;;;;;;4.55;2.60;;;;;;;10.96;91.96;100432.88;10497661;28;20085;-70
2023/05/08 21:01:23;;;;;;;4.38;2.67;;;;;;;11.17;91.79;100488.19;10462843;28;20041;-70
2023/05/08 21:06:24;;;;;;;5.10;3.08;;;;;;;11.27;92.40;100501.28;10455446;28;20045;-70
2023/05/08 21:11:25;;;;;;;5.15;3.03;;;;;;;11.34;91.94;100493.47;10455898;28;20559;-70
2023/05/08 21:16:25;;;;;;;7.53;3.00;;;;;;;11.43;91.93;100503.94;10456367;28;20131;-70
2023/05/08 21:21:26;;;;;;;7.65;2.92;;;;;;;11.26;91.77;100478.34;10455007;28;20033;-70
2023/05/08 21:26:27;;;;;;;5.18;2.95;;;;;;;11.39;91.29;100499.09;10455403;28;20049;-70
2023/05/08 21:31:28;;;;;;;5.18;2.95;;;;;;;10.69;91.45;100401.34;10455050;28;20043;-70
2023/05/08 21:36:29;;;;;;;6.15;3.40;;;;;;;11.22;91.66;100490.34;10455157;28;20049;-70
2023/05/08 21:41:31;;;;;;;6.10;3.25;;;;;;;11.26;91.28;100496.16;10455123;28;20120;-70
2023/05/08 21:46:32;;;;;;;7.82;2.85;;;;;;;11.19;91.36;100503.97;10454060;28;20037;-71
2023/05/08 21:51:33;;;;;;;5.85;2.60;;;;;;;10.07;90.78;100333.59;10454075;28;20041;-70
2023/05/08 21:56:34;;;;;;;6.45;3.00;;;;;;;11.00;90.93;100491.00;10454391;28;20469;-69
2023/05/08 22:01:35;;;;;;;6.05;2.90;;;;;;;10.94;90.92;100506.63;10454067;28;20080;-70
2023/05/08 22:06:36;;;;;;;4.45;3.10;;;;;;;10.87;91.01;100492.34;10453595;28;20412;-70
2023/05/08 22:11:37;;;;;;;9.45;3.40;;;;;;;10.38;90.91;100414.44;10453713;28;20045;-70
2023/05/08 22:16:37;;;;;;;5.53;3.45;;;;;;;10.82;90.91;100497.31;10453919;28;20041;-70
2023/05/08 22:21:39;;;;;;;6.43;3.30;;;;;;;10.60;91.38;100471.44;10453657;28;20044;-70
2023/05/08 22:26:39;;;;;;;7.50;3.25;;;;;;;10.63;91.27;100469.25;10453533;28;20036;-70
2023/05/08 22:31:40;;;;;;;6.20;3.42;;;;;;;10.73;91.59;100483.19;10494114;28;20040;-70
2023/05/08 22:36:41;;;;;;;4.95;3.15;;;;;;;10.63;91.55;100481.72;10493833;28;20050;-70
2023/05/08 22:41:42;;;;;;;6.72;3.25;;;;;;;10.22;91.66;100425.84;10494787;28;20154;-70
2023/05/08 22:46:43;;;;;;;5.28;3.30;;;;;;;10.61;91.69;100494.31;10494698;28;20499;-70
2023/05/08 22:51:44;;;;;;;6.45;3.08;;;;;;;10.55;91.70;100474.56;10494857;28;20126;-70
2023/05/08 22:56:44;;;;;;;5.90;3.20;;;;;;;10.13;91.27;100406.44;10494629;28;20063;-70
2023/05/08 23:01:45;;;;;;;7.28;3.25;;;;;;;10.64;91.20;100508.09;10494250;28;20471;-70
2023/05/08 23:06:46;;;;;;;10.98;3.25;;;;;;;10.63;91.36;100505.63;10497740;28;20071;-70
2023/05/08 23:11:48;;;;;;;4.82;2.70;;;;;;;10.66;91.31;100510.63;10501956;28;20097;-70